Harristown, Illinois
Current Conditions -  °F | °C
As of 4:54 AM on Thursday 27 Nov 2014 (Local Time) from KDEC Reporting Station
Haze Haze  
Wind Chill: 11°   Ceiling: 9000
Heat Index: 23°   Visibility: 6mi
Dew Point: 19°   Wind: 13mph
Humidity: 85%   Direction: 300°WNW
Pressure: 30.32"   Gusts: NA
Location:  39.85°N, 89.08°W
Report Text: KDEC 271054Z AUTO 30011KT 6SM BR OVC090 M05/M07 A3032 RMK AO2 SLP277 T10501072 TSNO
Loading
Personal Weather Stations






























Interactive Weather Map New forecast layout! Learn more

10-Day Weather Forecast

Advertisements
Track Severe Weather on mobile